No requereix especial atenci├│ pel que fa al clima.   -   No hi ha Alarmes

Resums METAR propers

 

LEBL - Barcelona Airpor, Spain
DistÓncia des de l'estaciˇ: SSE 30km
Actualitzaciˇ: 16/11/2018 20:30
Molt cobert
Molt cobert
 Vent del ENE
Vent: ENE 17 km/h
Temperatura: 16°C
Rosada: 13°C
Humitat: 83%
Bar˛metre: 1020 hPa
Nuvolositat: Molt cobert
Visibilitat: 10 km
Detalls nuvolositat: Alguns n˙vols 549 m
Molt cobert 1524 m
2018/11/16 19:30 LEBL 161930Z 06009KT 9999 FEW018 BKN050 16/13 Q1020 NOSIG
LELL - Sabadell, Spain
DistÓncia des de l'estaciˇ: ONO 14km
Actualitzaciˇ: 16/11/2018 20:30
Tapat
Tapat
 Vent del varies
Vent: varies 4 km/h
Temperatura: 15°C
Rosada: 13°C
Humitat: 88%
Bar˛metre: 1020 hPa
Nuvolositat: Tapat
Visibilitat: 10 km
Detalls nuvolositat: Tapat 1494 m
2018/11/16 19:30 LELL 161930Z AUTO VRB02KT 9999 OVC049 15/13 Q1020
 
LEGE - Girona/Costa Bra, Spain
DistÓncia des de l'estaciˇ: NE 65km
Actualitzaciˇ: 16/11/2018 20:30
Molt cobert
Molt cobert
 Vent del N
Vent: N 6 km/h
Temperatura: 14°C
Rosada: 14°C
Humitat: 100%
Bar˛metre: 1021 hPa
Nuvolositat: Molt cobert
Visibilitat: 8 km
Detalls nuvolositat: Alguns n˙vols 853 m
Molt cobert 1524 m
2018/11/16 19:30 LEGE 161930Z 01003KT 8000 FEW028 BKN050 14/14 Q1021
LERS - Reus (civ/Mil), Spain
DistÓncia des de l'estaciˇ: OSO 96km
Actualitzaciˇ: 16/11/2018 20:30
Molt cobert
Molt cobert
 Vent del NE
Vent: NE 6 km/h
Temperatura: 16°C
Rosada: 13°C
Humitat: 83%
Bar˛metre: 1020 hPa
Nuvolositat: Molt cobert
Visibilitat: 10 km
Detalls nuvolositat: Alguns n˙vols 549 m
Parcialment cobert 1158 m
Molt cobert 1402 m
2018/11/16 19:30 LERS 161930Z 05003KT 020V100 9999 FEW018 SCT038 BKN046 16/13 Q1020
 
LESU - Pirineus/La Seu, Spain
DistÓncia des de l'estaciˇ: NO 121km
Actualitzaciˇ: 16/11/2018 17:00
NO actualitzat
Parcialment cobert
Parcialment cobert
 Vent del OSO
Vent: OSO 6 km/h
Temperatura: 10°C
Rosada: 7°C
Humitat: 82%
Bar˛metre: 1021 hPa
Nuvolositat: Parcialment cobert
Visibilitat: 10 km
Detalls nuvolositat: Parcialment cobert 1372 m
2018/11/16 16:00 LESU 161600Z 25003KT 9999 SCT045 10/07 Q1021
LEDA - Lleida/Alguaire, Spain
DistÓncia des de l'estaciˇ: ONO 146km
Actualitzaciˇ: 16/11/2018 20:30
Mist, Alguns n˙vols
Mist, Alguns n˙vols
 Vent del NNE
Vent: NNE 4 km/h
Temperatura: 10°C
Rosada: 10°C
Humitat: 100%
Bar˛metre: 1020 hPa
Resum: Mist
Nuvolositat: Alguns n˙vols
Visibilitat: 3 km
Detalls nuvolositat: Alguns n˙vols 1036 m
2018/11/16 19:30 LEDA 161930Z AUTO 03002KT 3100 BR FEW034/// 10/10 Q1020
 
LFMP - Perpignan/Rivesa, France
DistÓncia des de l'estaciˇ: NNE 150km
Actualitzaciˇ: 16/11/2018 20:30
Tapat
Tapat
 Vent del SE
Vent: SE 7 km/h
Temperatura: 16°C
Rosada: 12°C
Humitat: 77%
Bar˛metre: 1020 hPa
Nuvolositat: Tapat
Visibilitat: 10 km
Detalls nuvolositat: Alguns n˙vols 1494 m
Tapat 1829 m
2018/11/16 19:30 LFMP 161930Z AUTO 13004KT 100V160 9999 FEW049 OVC060 16/12 Q1020 NOSIG
LEPA - Palma De Mallorca, Spain
DistÓncia des de l'estaciˇ: S 216km
Actualitzaciˇ: 16/11/2018 20:30
Alguns n˙vols
Alguns n˙vols
 Vent del NE
Vent: NE 7 km/h
Temperatura: 15°C
Rosada: 14°C
Humitat: 94%
Bar˛metre: 1018 hPa
Nuvolositat: Alguns n˙vols
Visibilitat: 10 km
Detalls nuvolositat: Alguns n˙vols 457 m
2018/11/16 19:30 LEPA 161930Z 04004KT 9999 FEW015 15/14 Q1018 NOSIG